createdAt,value
2022-10-10T00:01:54.134Z,2.83
2022-10-10T00:04:20.368Z,2.50
2022-10-10T00:06:46.892Z,2.80
2022-10-10T00:09:13.134Z,3.07
2022-10-10T00:11:39.379Z,2.90
2022-10-10T00:14:05.655Z,3.03
2022-10-10T00:16:32.023Z,2.90
2022-10-10T00:18:58.268Z,3.00
2022-10-10T00:21:24.523Z,3.10
2022-10-10T00:23:50.784Z,3.23
2022-10-10T00:26:19.308Z,3.07
2022-10-10T00:28:45.830Z,2.97
2022-10-10T00:31:12.156Z,3.00
2022-10-10T00:33:38.393Z,2.90
2022-10-10T00:36:05.434Z,3.10
2022-10-10T00:38:32.490Z,3.17
2022-10-10T00:40:58.751Z,2.73
2022-10-10T00:43:26.124Z,3.17
2022-10-10T00:45:52.376Z,2.73
2022-10-10T00:48:21.603Z,3.27
2022-10-10T00:50:50.411Z,3.00
2022-10-10T00:53:17.775Z,2.83
2022-10-10T00:55:44.556Z,2.90
2022-10-10T00:58:11.255Z,2.87
2022-10-10T01:00:37.549Z,2.90
2022-10-10T01:03:03.807Z,3.03
2022-10-10T01:05:30.333Z,3.50
2022-10-10T01:07:56.851Z,3.33
2022-10-10T01:10:24.752Z,3.33
2022-10-10T01:13:10.494Z,2.97
2022-10-10T01:22:16.541Z,3.20
2022-10-10T01:24:48.958Z,3.17
2022-10-10T01:27:28.814Z,3.10
2022-10-10T01:30:03.178Z,3.13
2022-10-10T01:32:41.187Z,2.80
2022-10-10T01:35:26.392Z,3.00
2022-10-10T01:37:58.587Z,3.37
2022-10-10T01:40:29.897Z,3.10
2022-10-10T01:43:01.072Z,3.13
2022-10-10T01:45:27.372Z,3.10
2022-10-10T01:47:55.990Z,2.97
2022-10-10T01:50:23.661Z,3.10
2022-10-10T01:52:59.056Z,3.07
2022-10-10T01:55:25.253Z,3.00
2022-10-10T01:58:00.366Z,3.20
2022-10-10T02:00:26.878Z,3.20
2022-10-10T02:02:57.162Z,2.97
2022-10-10T02:05:36.339Z,3.27
2022-10-10T02:08:20.033Z,3.33
2022-10-10T02:10:52.844Z,3.00
2022-10-10T02:13:19.995Z,2.90
2022-10-10T02:15:48.316Z,3.30
2022-10-10T02:18:15.985Z,3.03
2022-10-10T02:20:43.454Z,3.37
2022-10-10T02:23:11.213Z,3.10
2022-10-10T02:25:39.011Z,2.80
2022-10-10T02:28:13.439Z,3.30
2022-10-10T02:30:43.044Z,2.70
2022-10-10T02:33:09.499Z,2.97
2022-10-10T02:35:38.347Z,2.83
2022-10-10T02:38:05.948Z,3.27
2022-10-10T02:40:33.712Z,3.20
2022-10-10T02:43:01.208Z,3.37
2022-10-10T02:45:28.990Z,2.80
2022-10-10T02:47:55.400Z,3.10
2022-10-10T02:50:22.139Z,3.10
2022-10-10T02:52:48.775Z,3.00
2022-10-10T02:55:15.264Z,2.63
2022-10-10T02:57:41.478Z,3.43
2022-10-10T03:00:07.996Z,3.43
2022-10-10T03:02:34.356Z,3.43
2022-10-10T03:05:00.717Z,3.13
2022-10-10T03:07:26.969Z,3.03
2022-10-10T03:09:53.274Z,3.47
2022-10-10T03:12:19.569Z,2.93
2022-10-10T03:14:45.864Z,2.77
2022-10-10T03:17:13.140Z,3.40
2022-10-10T03:19:39.430Z,3.30
2022-10-10T03:22:05.714Z,3.00
2022-10-10T03:24:37.094Z,3.10
2022-10-10T03:27:03.326Z,2.80
2022-10-10T03:29:29.616Z,3.20
2022-10-10T03:31:55.837Z,3.37
2022-10-10T03:34:22.065Z,3.07
2022-10-10T03:36:48.359Z,3.10
2022-10-10T03:39:14.600Z,3.30
2022-10-10T03:41:40.816Z,3.00
2022-10-10T03:44:07.068Z,4.07
2022-10-10T03:46:33.290Z,3.50
2022-10-10T03:48:59.577Z,2.63
2022-10-10T03:51:26.032Z,3.50
2022-10-10T03:53:52.299Z,3.40
2022-10-10T03:56:18.537Z,3.27
2022-10-10T03:58:44.940Z,2.83
2022-10-10T04:01:11.290Z,3.50
2022-10-10T04:03:37.566Z,3.13
2022-10-10T04:06:03.883Z,3.13
2022-10-10T04:08:30.625Z,3.37
2022-10-10T04:10:56.861Z,3.50
2022-10-10T04:13:25.476Z,3.07
2022-10-10T04:15:52.864Z,3.13
2022-10-10T04:18:19.460Z,3.40
2022-10-10T04:20:45.687Z,3.40
2022-10-10T04:23:12.027Z,3.27
2022-10-10T04:25:38.270Z,3.50
2022-10-10T04:28:04.559Z,3.90
2022-10-10T04:30:32.660Z,3.43
2022-10-10T04:32:59.315Z,3.53
2022-10-10T04:35:25.565Z,3.67
2022-10-10T04:37:52.365Z,3.70
2022-10-10T04:40:22.681Z,4.00
2022-10-10T04:42:52.198Z,3.60
2022-10-10T04:45:18.769Z,3.30
2022-10-10T04:47:45.007Z,3.47
2022-10-10T04:50:11.323Z,3.67
2022-10-10T04:52:37.602Z,3.60
2022-10-10T04:55:04.226Z,3.60
2022-10-10T04:57:30.465Z,3.97
2022-10-10T04:59:56.739Z,3.60
2022-10-10T05:02:23.236Z,4.10
2022-10-10T05:04:49.477Z,3.63
2022-10-10T05:07:15.716Z,3.60
2022-10-10T05:09:41.962Z,3.60
2022-10-10T05:12:08.189Z,4.27
2022-10-10T05:14:34.574Z,3.80
2022-10-10T05:17:00.806Z,4.30
2022-10-10T05:19:27.104Z,3.83
2022-10-10T05:21:53.375Z,3.63
2022-10-10T05:24:19.680Z,4.00
2022-10-10T05:26:45.940Z,3.97
2022-10-10T05:29:12.191Z,3.80
2022-10-10T05:31:38.432Z,3.57
2022-10-10T05:34:04.731Z,3.37
2022-10-10T05:36:31.070Z,3.60
2022-10-10T05:38:57.776Z,3.83
2022-10-10T05:41:24.016Z,4.13
2022-10-10T05:43:50.293Z,3.70
2022-10-10T05:46:16.605Z,3.90
2022-10-10T05:48:43.406Z,4.33
2022-10-10T05:51:09.914Z,4.50
2022-10-10T05:53:36.274Z,4.40
2022-10-10T05:56:02.537Z,3.83
2022-10-10T05:58:28.875Z,4.20
2022-10-10T06:00:55.174Z,4.10
2022-10-10T06:03:21.443Z,3.87
2022-10-10T06:05:50.813Z,3.87
2022-10-10T06:08:17.068Z,4.20
2022-10-10T06:10:44.335Z,4.30
2022-10-10T06:13:11.586Z,3.73
2022-10-10T06:15:37.882Z,3.73
2022-10-10T06:18:04.792Z,4.10
2022-10-10T06:20:33.562Z,4.10
2022-10-10T06:22:59.859Z,4.40
2022-10-10T06:25:40.460Z,4.00
2022-10-10T06:28:07.599Z,4.10
2022-10-10T06:30:34.949Z,4.13
2022-10-10T06:33:01.540Z,4.53
2022-10-10T06:35:27.887Z,4.97
2022-10-10T06:37:54.135Z,4.03
2022-10-10T06:40:20.444Z,4.30
2022-10-10T06:42:46.682Z,4.40
2022-10-10T06:45:12.984Z,4.60
2022-10-10T06:47:39.862Z,4.47
2022-10-10T06:50:06.173Z,4.60
2022-10-10T06:52:32.453Z,4.60
2022-10-10T06:54:58.698Z,4.20
2022-10-10T06:57:24.929Z,4.20
2022-10-10T06:59:51.216Z,3.70
2022-10-10T07:02:17.510Z,3.77
2022-10-10T07:04:44.866Z,4.47
2022-10-10T07:07:11.154Z,4.00
2022-10-10T07:09:37.475Z,4.70
2022-10-10T07:12:04.495Z,4.03
2022-10-10T07:14:30.737Z,3.93
2022-10-10T07:16:57.006Z,3.73
2022-10-10T07:19:24.929Z,4.20
2022-10-10T07:21:51.378Z,3.63
2022-10-10T07:24:17.723Z,4.10
2022-10-10T07:26:43.949Z,4.70
2022-10-10T07:29:10.195Z,4.00
2022-10-10T07:31:36.487Z,4.20
2022-10-10T07:34:05.441Z,3.93
2022-10-10T07:36:31.682Z,3.90
2022-10-10T07:38:57.948Z,4.10
2022-10-10T07:41:24.183Z,4.73
2022-10-10T07:43:54.017Z,4.60
2022-10-10T07:46:20.299Z,3.83
2022-10-10T07:48:46.828Z,4.03
2022-10-10T07:51:13.162Z,4.00
2022-10-10T07:53:40.777Z,4.20
2022-10-10T07:56:07.788Z,4.07
2022-10-10T07:58:34.834Z,3.83
2022-10-10T08:01:04.777Z,4.63
2022-10-10T08:03:31.192Z,3.70
2022-10-10T08:05:57.868Z,3.70
2022-10-10T08:08:24.186Z,4.27
2022-10-10T08:10:51.370Z,3.90
2022-10-10T08:13:17.673Z,3.20
2022-10-10T08:15:43.946Z,3.80
2022-10-10T08:18:10.164Z,3.97
2022-10-10T08:20:36.416Z,3.87
2022-10-10T08:23:02.782Z,3.00
2022-10-10T08:25:28.995Z,4.10
2022-10-10T08:27:55.214Z,3.50
2022-10-10T08:30:21.441Z,3.47
2022-10-10T08:32:47.714Z,3.30
2022-10-10T08:35:14.060Z,3.40
2022-10-10T08:37:40.283Z,3.37
2022-10-10T08:40:07.002Z,3.70
2022-10-10T08:42:53.493Z,3.17
2022-10-10T08:45:21.522Z,2.70
2022-10-10T08:47:56.889Z,2.87
2022-10-10T08:50:39.273Z,3.20
2022-10-10T08:53:08.391Z,3.27
2022-10-10T08:55:37.706Z,3.17
2022-10-10T08:58:12.232Z,3.20
2022-10-10T09:00:39.675Z,2.77
2022-10-10T09:03:14.675Z,2.70
2022-10-10T09:05:46.579Z,2.90
2022-10-10T09:08:31.388Z,3.10
2022-10-10T09:11:01.822Z,2.60
2022-10-10T09:13:31.131Z,3.10
2022-10-10T09:16:01.782Z,2.60
2022-10-10T09:18:41.928Z,2.90
2022-10-10T09:21:14.647Z,2.73
2022-10-10T09:23:43.531Z,2.67
2022-10-10T09:26:12.919Z,2.77
2022-10-10T09:28:45.453Z,2.77
2022-10-10T09:31:16.275Z,2.70
2022-10-10T09:33:49.913Z,2.40
2022-10-10T09:36:18.687Z,2.83
2022-10-10T09:38:50.559Z,2.53
2022-10-10T09:41:25.662Z,2.80
2022-10-10T09:43:59.572Z,3.50
2022-10-10T09:46:26.666Z,2.70
2022-10-10T09:48:53.392Z,2.83
2022-10-10T09:51:19.993Z,2.77
2022-10-10T09:53:47.478Z,2.83
2022-10-10T09:56:18.246Z,2.30
2022-10-10T09:58:46.322Z,2.53
2022-10-10T10:01:18.470Z,2.40
2022-10-10T10:03:45.148Z,2.73
2022-10-10T10:06:15.251Z,2.83
2022-10-10T10:08:42.774Z,2.53
2022-10-10T10:11:25.376Z,2.60
2022-10-10T10:13:54.017Z,2.70
2022-10-10T10:16:20.301Z,2.67
2022-10-10T10:18:47.278Z,2.57
2022-10-10T10:21:15.823Z,2.80
2022-10-10T10:23:43.788Z,2.80
2022-10-10T10:26:18.155Z,2.90
2022-10-10T10:28:44.974Z,2.87
2022-10-10T10:31:16.802Z,2.80
2022-10-10T10:33:49.109Z,2.53
2022-10-10T10:36:18.461Z,2.50
2022-10-10T10:38:48.418Z,2.50
2022-10-10T10:41:22.504Z,3.00
2022-10-10T10:44:01.024Z,2.83
2022-10-10T10:46:31.853Z,2.33
2022-10-10T10:49:02.545Z,2.47
2022-10-10T10:51:36.080Z,1.97
2022-10-10T10:54:02.298Z,2.30
2022-10-10T10:56:44.698Z,2.40
2022-10-10T10:59:39.041Z,2.37
2022-10-10T11:02:06.544Z,2.37
2022-10-10T11:05:25.013Z,2.40
2022-10-10T11:07:26.725Z,2.30
2022-10-10T11:09:52.967Z,2.50
2022-10-10T11:12:32.581Z,2.67
2022-10-10T11:15:01.421Z,2.40
2022-10-10T11:17:37.394Z,2.40
2022-10-10T11:20:12.005Z,2.20
2022-10-10T11:22:41.198Z,2.50
2022-10-10T11:25:16.292Z,2.47
2022-10-10T11:27:42.501Z,2.40
2022-10-10T11:30:16.616Z,2.40
2022-10-10T11:32:55.182Z,2.43
2022-10-10T11:35:33.270Z,2.37
2022-10-10T11:38:13.690Z,2.50
2022-10-10T11:40:46.575Z,2.63
2022-10-10T11:43:17.636Z,2.47
2022-10-10T11:45:45.528Z,2.27
2022-10-10T11:48:17.085Z,2.23
2022-10-10T11:50:43.565Z,2.40
2022-10-10T11:53:28.691Z,2.53
2022-10-10T11:56:14.235Z,2.70
2022-10-10T11:58:42.306Z,2.67
2022-10-10T12:01:18.878Z,2.53
2022-10-10T12:03:45.272Z,2.80
2022-10-10T12:06:21.135Z,2.93
2022-10-10T12:08:52.134Z,2.70
2022-10-10T12:11:21.336Z,2.90
2022-10-10T12:13:52.284Z,2.57
2022-10-10T12:16:20.926Z,2.47
2022-10-10T12:18:52.138Z,2.77
2022-10-10T12:21:20.712Z,2.63
2022-10-10T12:23:48.916Z,2.83
2022-10-10T12:26:24.421Z,2.77
2022-10-10T12:29:06.964Z,3.00
2022-10-10T12:31:34.924Z,2.60
2022-10-10T12:34:03.163Z,2.57
2022-10-10T12:36:29.376Z,2.90
2022-10-10T12:39:01.736Z,2.97
2022-10-10T12:41:47.248Z,2.70
2022-10-10T12:44:26.124Z,2.97
2022-10-10T12:47:11.022Z,2.67
2022-10-10T12:49:37.996Z,2.60
2022-10-10T12:52:06.945Z,2.97
2022-10-10T12:54:37.296Z,2.77
2022-10-10T12:57:16.705Z,2.50
2022-10-10T12:59:43.096Z,3.00
2022-10-10T13:02:14.709Z,2.70
2022-10-10T13:04:42.693Z,2.90
2022-10-10T13:07:12.998Z,2.90
2022-10-10T13:09:39.299Z,3.00
2022-10-10T13:12:06.769Z,2.80
2022-10-10T13:14:41.046Z,2.70
2022-10-10T13:17:24.761Z,3.10
2022-10-10T13:19:51.455Z,2.77
2022-10-10T13:22:17.811Z,2.97
2022-10-10T13:24:44.623Z,3.43
2022-10-10T13:27:17.104Z,3.00
2022-10-10T13:29:43.516Z,3.00
2022-10-10T13:32:14.432Z,3.10
2022-10-10T13:34:43.600Z,2.67
2022-10-10T13:37:13.666Z,3.40
2022-10-10T13:39:40.639Z,3.53
2022-10-10T13:42:09.160Z,3.03
2022-10-10T13:44:49.747Z,3.13
2022-10-10T13:47:54.467Z,3.00
2022-10-10T13:50:22.518Z,3.03
2022-10-10T13:52:48.848Z,3.30
2022-10-10T13:55:16.206Z,3.00
2022-10-10T13:57:42.473Z,2.90
2022-10-10T14:00:16.131Z,3.23
2022-10-10T14:02:43.287Z,2.97
2022-10-10T14:05:13.764Z,3.00
2022-10-10T14:07:40.219Z,3.10
2022-10-10T14:10:08.197Z,3.07
2022-10-10T14:12:35.800Z,3.37
2022-10-10T14:15:02.383Z,3.03
2022-10-10T14:17:28.949Z,3.33
2022-10-10T14:19:55.296Z,2.80
2022-10-10T14:22:21.802Z,3.23
2022-10-10T14:24:48.700Z,3.37
2022-10-10T14:27:14.914Z,3.10
2022-10-10T14:29:41.216Z,2.93
2022-10-10T14:32:09.126Z,3.20
2022-10-10T14:34:35.388Z,2.63
2022-10-10T14:37:01.644Z,3.20
2022-10-10T14:39:27.892Z,2.87
2022-10-10T14:41:54.155Z,4.10
2022-10-10T14:44:20.437Z,3.00
2022-10-10T14:46:46.689Z,3.47
2022-10-10T14:49:16.192Z,3.40
2022-10-10T14:51:42.407Z,3.27
2022-10-10T14:54:10.144Z,3.17
2022-10-10T14:57:08.995Z,3.10
2022-10-10T14:59:48.342Z,2.87
2022-10-10T15:02:14.017Z,2.53
2022-10-10T15:04:40.233Z,3.13
2022-10-10T15:07:13.374Z,2.90
2022-10-10T15:09:42.910Z,3.23
2022-10-10T15:12:13.826Z,3.00
2022-10-10T15:14:40.024Z,2.93
2022-10-10T15:17:06.252Z,3.20
2022-10-10T15:19:32.465Z,3.40
2022-10-10T15:21:58.709Z,3.50
2022-10-10T15:24:34.226Z,3.10
2022-10-10T15:27:00.909Z,3.40
2022-10-10T15:29:27.531Z,3.50
2022-10-10T15:31:54.204Z,3.20
2022-10-10T15:34:20.894Z,3.10
2022-10-10T15:36:47.114Z,3.30
2022-10-10T15:39:13.324Z,3.10
2022-10-10T15:41:39.594Z,3.23
2022-10-10T15:44:05.817Z,4.43
2022-10-10T15:46:32.208Z,4.30
2022-10-10T15:49:00.246Z,4.40
2022-10-10T15:51:27.878Z,3.63
2022-10-10T15:54:00.599Z,3.30
2022-10-10T15:56:27.145Z,3.20
2022-10-10T15:58:57.291Z,3.90
2022-10-10T16:01:23.889Z,3.20
2022-10-10T16:03:50.271Z,3.80
2022-10-10T16:06:18.271Z,3.20
2022-10-10T16:08:44.898Z,3.50
2022-10-10T16:11:12.528Z,3.60
2022-10-10T16:13:39.422Z,3.83
2022-10-10T16:16:08.407Z,3.83
2022-10-10T16:18:39.980Z,3.70
2022-10-10T16:21:07.684Z,3.90
2022-10-10T16:23:34.161Z,4.03
2022-10-10T16:26:01.779Z,3.90
2022-10-10T16:28:28.387Z,3.23
2022-10-10T16:30:54.943Z,3.43
2022-10-10T16:33:21.511Z,4.20
2022-10-10T16:35:47.727Z,4.23
2022-10-10T16:38:13.945Z,4.03
2022-10-10T16:40:42.472Z,3.83
2022-10-10T16:43:08.696Z,4.20
2022-10-10T16:45:34.903Z,3.60
2022-10-10T16:48:01.243Z,3.70
2022-10-10T16:50:28.088Z,4.17
2022-10-10T16:52:54.382Z,4.33
2022-10-10T16:55:20.589Z,4.03
2022-10-10T16:57:49.145Z,3.93
2022-10-10T17:00:15.423Z,3.90
2022-10-10T17:02:42.507Z,3.90
2022-10-10T17:05:08.828Z,4.23
2022-10-10T17:07:35.839Z,3.93
2022-10-10T17:10:02.107Z,4.30
2022-10-10T17:12:28.327Z,4.83
2022-10-10T17:14:54.540Z,4.40
2022-10-10T17:17:20.826Z,4.40
2022-10-10T17:19:49.153Z,4.27
2022-10-10T17:22:15.688Z,4.43
2022-10-10T17:24:41.991Z,4.07
2022-10-10T17:27:08.244Z,4.20
2022-10-10T17:29:34.458Z,4.17
2022-10-10T17:32:05.902Z,3.90
2022-10-10T17:34:32.802Z,4.10
2022-10-10T17:36:59.096Z,4.33
2022-10-10T17:39:25.330Z,4.67
2022-10-10T17:41:51.776Z,4.50
2022-10-10T17:44:18.028Z,4.10
2022-10-10T17:46:45.046Z,4.40
2022-10-10T17:49:12.172Z,3.87
2022-10-10T17:51:39.771Z,4.53
2022-10-10T17:54:08.531Z,4.77
2022-10-10T17:56:35.150Z,4.30
2022-10-10T17:59:02.356Z,4.83
2022-10-10T18:01:30.507Z,4.43
2022-10-10T18:03:57.128Z,4.20
2022-10-10T18:06:26.277Z,4.40
2022-10-10T18:08:56.167Z,4.53
2022-10-10T18:11:23.599Z,4.83
2022-10-10T18:13:50.151Z,4.80
2022-10-10T18:16:18.094Z,4.63
2022-10-10T18:18:50.345Z,5.30
2022-10-10T18:21:18.549Z,4.87
2022-10-10T18:23:44.871Z,4.23
2022-10-10T18:26:15.320Z,5.10
2022-10-10T18:28:42.568Z,5.13
2022-10-10T18:31:13.563Z,5.07
2022-10-10T18:33:40.902Z,5.70
2022-10-10T18:36:07.856Z,5.63
2022-10-10T18:38:34.229Z,5.13
2022-10-10T18:41:11.392Z,5.50
2022-10-10T18:43:38.421Z,5.57
2022-10-10T18:46:05.675Z,5.70
2022-10-10T18:48:32.203Z,6.20
2022-10-10T18:51:02.286Z,5.83
2022-10-10T18:53:28.938Z,5.60
2022-10-10T18:55:56.392Z,5.90
2022-10-10T18:58:23.115Z,5.20
2022-10-10T19:00:49.409Z,6.00
2022-10-10T19:03:16.406Z,5.60
2022-10-10T19:05:42.673Z,6.03
2022-10-10T19:08:09.564Z,5.97
2022-10-10T19:10:35.824Z,6.10
2022-10-10T19:13:02.100Z,6.10
2022-10-10T19:15:28.312Z,6.20
2022-10-10T19:17:54.522Z,6.10
2022-10-10T19:20:20.893Z,6.80
2022-10-10T19:22:48.459Z,6.33
2022-10-10T19:25:14.683Z,6.50
2022-10-10T19:27:40.904Z,6.57
2022-10-10T19:30:07.465Z,6.47
2022-10-10T19:32:34.834Z,6.63
2022-10-10T19:35:01.184Z,6.63
2022-10-10T19:37:27.395Z,6.27
2022-10-10T19:39:54.371Z,6.83
2022-10-10T19:42:20.799Z,6.80
2022-10-10T19:44:47.654Z,6.50
2022-10-10T19:47:14.110Z,5.93
2022-10-10T19:49:40.367Z,6.10
2022-10-10T19:52:06.590Z,6.43
2022-10-10T19:54:32.881Z,5.87
2022-10-10T19:56:59.118Z,5.60
2022-10-10T19:59:26.179Z,5.77
2022-10-10T20:01:52.574Z,5.43
2022-10-10T20:04:18.904Z,5.40
2022-10-10T20:06:45.175Z,5.93
2022-10-10T20:09:11.830Z,6.50
2022-10-10T20:11:38.576Z,5.50
2022-10-10T20:14:04.854Z,6.00
2022-10-10T20:16:31.171Z,5.90
2022-10-10T20:18:58.048Z,5.70
2022-10-10T20:21:29.268Z,5.20
2022-10-10T20:23:55.620Z,5.53
2022-10-10T20:26:22.634Z,5.90
2022-10-10T20:28:49.870Z,5.53
2022-10-10T20:31:19.760Z,5.13
2022-10-10T20:33:46.876Z,5.37
2022-10-10T20:36:13.457Z,5.60
2022-10-10T20:38:40.606Z,5.63
2022-10-10T20:41:08.317Z,5.40
2022-10-10T20:43:35.248Z,5.20
2022-10-10T20:46:08.371Z,4.50
2022-10-10T20:48:34.910Z,4.50
2022-10-10T20:51:02.434Z,4.40
2022-10-10T20:53:28.715Z,3.83
2022-10-10T20:55:55.004Z,3.90
2022-10-10T20:58:21.300Z,4.10
2022-10-10T21:00:47.516Z,3.87
2022-10-10T21:03:13.740Z,4.07
2022-10-10T21:05:39.967Z,4.23
2022-10-10T21:08:06.176Z,4.13
2022-10-10T21:10:32.387Z,4.63
2022-10-10T21:12:58.601Z,3.90
2022-10-10T21:15:24.814Z,3.60
2022-10-10T21:17:51.023Z,3.73
2022-10-10T21:20:17.247Z,3.50
2022-10-10T21:22:43.459Z,3.50
2022-10-10T21:25:12.211Z,3.90
2022-10-10T21:27:38.484Z,3.47
2022-10-10T21:30:04.934Z,3.10
2022-10-10T21:32:31.857Z,3.60
2022-10-10T21:34:58.120Z,3.90
2022-10-10T21:37:27.046Z,3.57
2022-10-10T21:39:53.251Z,3.50
2022-10-10T21:42:20.217Z,3.63
2022-10-10T21:44:46.583Z,3.60
2022-10-10T21:47:12.819Z,3.37
2022-10-10T21:49:39.063Z,3.43
2022-10-10T21:52:05.278Z,3.93
2022-10-10T21:54:31.524Z,3.50
2022-10-10T21:56:57.771Z,3.80
2022-10-10T21:59:26.344Z,4.20
2022-10-10T22:01:52.579Z,4.07
2022-10-10T22:04:19.183Z,3.97
2022-10-10T22:06:45.428Z,4.00
2022-10-10T22:09:11.665Z,3.73
2022-10-10T22:11:37.911Z,4.47
2022-10-10T22:14:04.417Z,4.57
2022-10-10T22:16:31.777Z,3.93
2022-10-10T22:18:58.100Z,4.27
2022-10-10T22:21:29.371Z,4.70
2022-10-10T22:23:57.187Z,4.30
2022-10-10T22:26:23.436Z,4.47
2022-10-10T22:28:49.744Z,4.10
2022-10-10T22:31:16.338Z,4.13
2022-10-10T22:33:43.258Z,4.40
2022-10-10T22:36:09.839Z,4.10
2022-10-10T22:38:37.486Z,4.27
2022-10-10T22:41:03.795Z,4.00
2022-10-10T22:43:30.023Z,4.03
2022-10-10T22:45:56.244Z,4.27
2022-10-10T22:48:22.472Z,3.73
2022-10-10T22:50:57.499Z,3.80
2022-10-10T22:53:24.035Z,4.03
2022-10-10T22:55:50.247Z,3.97
2022-10-10T22:58:16.463Z,3.70
2022-10-10T23:00:42.732Z,3.23
2022-10-10T23:03:08.960Z,3.70
2022-10-10T23:05:35.234Z,3.30
2022-10-10T23:08:01.666Z,3.30
2022-10-10T23:10:28.214Z,3.20
2022-10-10T23:12:54.631Z,3.00
2022-10-10T23:15:20.838Z,2.37
2022-10-10T23:17:47.032Z,3.00
2022-10-10T23:20:13.259Z,2.90
2022-10-10T23:22:39.579Z,2.40
2022-10-10T23:25:06.129Z,2.40
2022-10-10T23:27:32.347Z,2.87
2022-10-10T23:29:58.551Z,2.53
2022-10-10T23:32:29.087Z,2.40
2022-10-10T23:34:56.256Z,2.57
2022-10-10T23:37:23.096Z,2.30
2022-10-10T23:39:49.307Z,2.43
2022-10-10T23:42:15.558Z,2.30
2022-10-10T23:44:41.770Z,2.40
2022-10-10T23:47:07.983Z,2.03
2022-10-10T23:49:34.208Z,2.27
2022-10-10T23:52:00.484Z,2.23
2022-10-10T23:54:27.036Z,2.10
2022-10-10T23:56:53.289Z,1.90
2022-10-10T23:59:19.511Z,2.00
